Time;durP1;ratioP1;P1;durP2;ratioP2;P2;SDS_P1;SDS_P2;PMS_P1;PMS_P2;Temp;Humidity;BMP_temperature;BMP_pressure;BME280_temperature;BME280_humidity;BME280_pressure;Samples;Min_cycle;Max_cycle;Signal;HPM_P1;HPM_P2
2023/05/02 00:02:00;;;;;;;4.25;2.88;;;17.00;97.00;;;;;;5032856;28;20046;-74
2023/05/02 00:04:26;;;;;;;4.30;3.10;;;17.00;97.00;;;;;;5032770;28;20116;-75
2023/05/02 00:06:55;;;;;;;6.40;3.47;;;17.00;96.90;;;;;;5032814;28;20403;-75
2023/05/02 00:09:21;;;;;;;5.18;3.58;;;17.00;96.80;;;;;;5032591;28;20080;-75
2023/05/02 00:11:46;;;;;;;5.22;3.17;;;17.00;97.00;;;;;;5032974;28;20065;-75
2023/05/02 00:14:12;;;;;;;6.47;3.80;;;17.00;96.70;;;;;;5032866;28;20030;-73
2023/05/02 00:16:38;;;;;;;5.53;3.50;;;17.00;96.70;;;;;;5032936;28;20037;-75
2023/05/02 00:19:03;;;;;;;5.20;3.40;;;17.00;96.80;;;;;;5015181;28;20550;-74
2023/05/02 00:21:30;;;;;;;7.28;3.97;;;17.00;96.80;;;;;;5032860;28;20033;-75
2023/05/02 00:23:55;;;;;;;5.88;4.20;;;17.00;96.70;;;;;;5032553;28;20461;-74
2023/05/02 00:26:22;;;;;;;5.57;3.72;;;17.00;96.80;;;;;;5032618;28;20057;-74
2023/05/02 00:28:48;;;;;;;5.68;3.88;;;17.00;96.70;;;;;;5032393;28;20049;-74
2023/05/02 00:31:14;;;;;;;6.57;4.15;;;17.00;96.80;;;;;;5032512;28;20033;-75
2023/05/02 00:33:40;;;;;;;7.18;4.63;;;17.00;96.70;;;;;;5032528;28;20040;-74
2023/05/02 00:36:15;;;;;;;6.40;4.00;;;17.00;96.80;;;;;;5032712;28;20037;-76
2023/05/02 00:38:41;;;;;;;6.70;3.97;;;16.90;96.70;;;;;;5015077;28;20038;-74
2023/05/02 00:41:07;;;;;;;7.70;4.10;;;17.00;96.90;;;;;;5032513;28;20042;-74
2023/05/02 00:43:32;;;;;;;5.88;4.22;;;17.00;96.90;;;;;;5034003;28;20391;-75
2023/05/02 00:45:58;;;;;;;8.35;4.57;;;17.00;96.90;;;;;;5036568;28;20057;-74
2023/05/02 00:48:24;;;;;;;5.75;4.10;;;17.00;96.90;;;;;;5036670;28;20033;-75
2023/05/02 00:50:51;;;;;;;9.70;4.40;;;17.00;96.90;;;;;;5036540;28;20037;-75
2023/05/02 00:53:16;;;;;;;8.05;4.78;;;17.00;96.90;;;;;;5018520;28;20053;-74
2023/05/02 00:55:42;;;;;;;4.93;3.90;;;17.00;96.80;;;;;;5036388;28;20115;-74
2023/05/02 00:58:11;;;;;;;7.57;4.30;;;17.00;96.90;;;;;;5036289;28;20091;-73
2023/05/02 01:01:06;;;;;;;6.60;4.20;;;16.90;96.80;;;;;;5036139;28;20485;-76
2023/05/02 01:03:38;;;;;;;9.30;4.03;;;17.00;97.00;;;;;;5036387;28;20033;-74
2023/05/02 01:06:48;;;;;;;6.22;4.13;;;17.00;96.90;;;;;;5036415;28;20109;-75
2023/05/02 01:09:32;;;;;;;6.68;3.63;;;17.00;96.90;;;;;;5031948;28;20049;-75
2023/05/02 01:12:11;;;;;;;6.20;3.90;;;17.00;96.90;;;;;;5035896;28;20425;-75
2023/05/02 01:14:43;;;;;;;5.55;3.50;;;17.00;96.70;;;;;;5036181;28;20084;-75
2023/05/02 01:17:11;;;;;;;6.95;3.50;;;17.00;96.70;;;;;;5018776;28;20021;-74
2023/05/02 01:19:46;;;;;;;6.50;3.50;;;16.90;96.60;;;;;;5018386;28;20394;-74
2023/05/02 01:22:14;;;;;;;4.90;3.35;;;16.90;96.60;;;;;;5036066;28;20541;-75
2023/05/02 01:25:00;;;;;;;5.22;3.25;;;16.90;96.60;;;;;;5035895;28;20041;-76
2023/05/02 01:28:04;;;;;;;5.82;3.55;;;16.90;96.40;;;;;;5017710;28;20033;-74
2023/05/02 01:30:32;;;;;;;4.97;3.63;;;16.90;96.50;;;;;;5036036;28;20053;-75
2023/05/02 01:33:01;;;;;;;5.65;3.83;;;16.90;96.40;;;;;;5035911;28;20056;-74
2023/05/02 01:35:26;;;;;;;5.88;3.95;;;16.90;96.50;;;;;;5018001;28;20576;-74
2023/05/02 01:37:54;;;;;;;5.22;3.65;;;17.00;96.60;;;;;;5035599;28;20087;-74
2023/05/02 01:40:22;;;;;;;5.15;3.53;;;17.00;96.60;;;;;;5035460;28;20076;-75
2023/05/02 01:42:50;;;;;;;5.88;3.60;;;17.00;96.60;;;;;;5035489;28;20083;-75
2023/05/02 01:45:16;;;;;;;6.07;4.43;;;17.00;96.70;;;;;;5035158;28;20033;-74
2023/05/02 01:47:43;;;;;;;5.80;4.03;;;17.00;96.60;;;;;;5035414;28;20030;-74
2023/05/02 01:50:14;;;;;;;6.28;4.30;;;17.00;96.70;;;;;;5035224;28;20045;-75
2023/05/02 01:52:41;;;;;;;6.10;4.38;;;16.90;96.70;;;;;;5035400;28;20034;-74
2023/05/02 01:55:11;;;;;;;7.30;5.22;;;16.90;96.60;;;;;;5016997;28;20053;-74
2023/05/02 01:57:40;;;;;;;7.00;5.15;;;16.90;96.70;;;;;;5035244;28;20077;-74
2023/05/02 02:00:07;;;;;;;6.70;4.60;;;16.90;96.60;;;;;;5035155;28;20399;-75
2023/05/02 02:02:34;;;;;;;6.93;4.95;;;16.90;96.60;;;;;;5002960;28;20037;-76
2023/05/02 02:05:03;;;;;;;6.68;4.90;;;16.80;96.50;;;;;;5035977;28;20491;-75
2023/05/02 02:07:29;;;;;;;6.70;4.95;;;16.80;96.60;;;;;;5035203;28;20040;-74
2023/05/02 02:09:55;;;;;;;6.30;4.82;;;16.90;96.60;;;;;;5000733;28;20128;-73
2023/05/02 02:12:26;;;;;;;7.43;5.47;;;16.90;96.70;;;;;;5035049;28;20026;-74
2023/05/02 02:15:25;;;;;;;8.02;5.43;;;16.90;96.70;;;;;;5034625;28;20572;-74
2023/05/02 02:18:18;;;;;;;6.15;4.97;;;16.90;96.60;;;;;;5019820;28;20116;-74
2023/05/02 02:20:45;;;;;;;11.35;7.45;;;16.90;96.90;;;;;;5034814;28;20034;-75
2023/05/02 02:23:13;;;;;;;8.20;5.80;;;16.90;96.70;;;;;;5034812;28;20446;-73
2023/05/02 02:25:39;;;;;;;8.30;5.90;;;16.90;96.60;;;;;;5034507;28;20038;-74
2023/05/02 02:28:06;;;;;;;7.82;5.30;;;16.90;96.70;;;;;;5034607;28;20026;-74
2023/05/02 02:30:32;;;;;;;8.32;6.03;;;16.90;96.80;;;;;;5034410;28;20529;-74
2023/05/02 02:32:57;;;;;;;8.32;5.40;;;16.80;96.80;;;;;;5034616;28;20026;-74
2023/05/02 02:35:30;;;;;;;9.32;6.15;;;16.80;96.70;;;;;;5034520;28;20029;-74
2023/05/02 02:38:08;;;;;;;7.93;6.25;;;16.90;96.80;;;;;;5034321;28;20045;-74
2023/05/02 02:40:43;;;;;;;11.35;6.20;;;16.90;96.70;;;;;;5034516;28;20042;-75
2023/05/02 02:43:20;;;;;;;8.18;5.50;;;16.90;96.70;;;;;;5034414;28;20029;-76
2023/05/02 02:45:51;;;;;;;7.47;5.53;;;16.90;96.80;;;;;;5034267;28;20037;-75
2023/05/02 02:48:34;;;;;;;9.85;6.32;;;16.90;96.60;;;;;;5034235;28;20037;-75
2023/05/02 02:51:21;;;;;;;9.80;6.57;;;17.00;96.80;;;;;;5034218;28;20063;-74
2023/05/02 02:54:23;;;;;;;11.32;6.40;;;17.00;96.60;;;;;;5034249;28;20036;-74
2023/05/02 02:57:06;;;;;;;9.30;6.05;;;17.00;96.60;;;;;;5034746;28;20030;-76
2023/05/02 02:59:35;;;;;;;7.10;5.35;;;16.90;96.90;;;;;;5035812;28;20033;-75
2023/05/02 03:02:07;;;;;;;8.90;5.90;;;16.90;96.50;;;;;;5040117;28;20029;-74
2023/05/02 03:04:35;;;;;;;9.02;5.68;;;16.90;96.50;;;;;;5042731;28;20041;-75
2023/05/02 03:07:01;;;;;;;7.78;5.07;;;16.90;96.50;;;;;;5050051;28;20033;-75
2023/05/02 03:09:29;;;;;;;9.75;5.75;;;16.90;96.40;;;;;;5036499;28;20057;-75
2023/05/02 03:11:56;;;;;;;6.63;5.28;;;16.90;96.40;;;;;;5034070;28;20036;-74
2023/05/02 03:14:22;;;;;;;8.88;6.38;;;16.80;96.40;;;;;;5034124;28;20041;-75
2023/05/02 03:16:48;;;;;;;9.35;6.47;;;16.90;96.40;;;;;;5033900;28;20053;-73
2023/05/02 03:19:14;;;;;;;8.25;6.65;;;16.90;96.40;;;;;;5033645;28;20042;-75
2023/05/02 03:21:40;;;;;;;9.10;6.60;;;16.90;96.50;;;;;;5033731;28;20064;-75
2023/05/02 03:24:06;;;;;;;8.90;6.32;;;16.90;96.40;;;;;;5033592;28;20499;-75
2023/05/02 03:26:32;;;;;;;10.13;6.57;;;16.90;96.40;;;;;;5033594;28;20057;-75
2023/05/02 03:28:58;;;;;;;8.35;7.05;;;16.90;96.40;;;;;;5033394;28;20511;-75
2023/05/02 03:31:24;;;;;;;7.95;7.00;;;16.90;96.40;;;;;;5033814;28;20034;-74
2023/05/02 03:33:50;;;;;;;9.15;7.65;;;16.90;96.50;;;;;;5033342;28;20037;-74
2023/05/02 03:36:15;;;;;;;10.18;8.18;;;16.80;96.50;;;;;;5033738;28;20033;-76
2023/05/02 03:38:41;;;;;;;9.45;7.15;;;16.90;96.50;;;;;;5033884;28;20033;-76
2023/05/02 03:41:07;;;;;;;10.65;7.90;;;16.80;96.60;;;;;;5033756;28;20091;-76
2023/05/02 03:43:33;;;;;;;11.07;8.23;;;16.80;96.70;;;;;;5033746;28;20025;-74
2023/05/02 03:46:08;;;;;;;10.20;8.25;;;16.80;96.70;;;;;;5033565;28;20025;-73
2023/05/02 03:48:34;;;;;;;11.80;8.57;;;16.80;96.80;;;;;;5032982;28;20049;-76
2023/05/02 03:51:01;;;;;;;10.10;8.45;;;16.80;96.80;;;;;;5033165;28;20053;-74
2023/05/02 03:53:28;;;;;;;10.55;8.30;;;16.80;96.80;;;;;;5033198;28;20434;-73
2023/05/02 03:55:54;;;;;;;10.55;7.70;;;16.70;96.80;;;;;;5033090;28;20033;-73
2023/05/02 03:58:20;;;;;;;10.23;8.27;;;16.70;96.80;;;;;;5033441;28;20100;-74
2023/05/02 04:00:45;;;;;;;13.00;9.63;;;16.70;96.80;;;;;;5033230;28;20072;-74
2023/05/02 04:03:11;;;;;;;13.13;8.45;;;16.70;96.80;;;;;;5032934;28;20117;-74
2023/05/02 04:05:37;;;;;;;11.13;9.15;;;16.70;96.80;;;;;;5032930;28;20087;-75
2023/05/02 04:08:03;;;;;;;10.57;8.27;;;16.70;96.80;;;;;;5032863;28;20025;-74
2023/05/02 04:10:28;;;;;;;11.40;8.35;;;16.70;96.80;;;;;;5032953;28;20399;-74
2023/05/02 04:12:54;;;;;;;10.68;7.40;;;16.70;96.90;;;;;;5032950;28;20483;-74
2023/05/02 04:15:20;;;;;;;11.05;8.13;;;16.70;96.90;;;;;;5033015;28;20033;-74
2023/05/02 04:17:45;;;;;;;9.65;7.35;;;16.70;96.90;;;;;;5032359;28;20491;-75
2023/05/02 04:20:11;;;;;;;9.90;7.50;;;16.70;96.90;;;;;;5032961;28;20053;-75
2023/05/02 04:22:38;;;;;;;10.38;7.68;;;16.80;96.90;;;;;;5032814;28;20372;-74
2023/05/02 04:25:05;;;;;;;10.43;7.95;;;16.80;96.90;;;;;;5032520;28;20049;-74
2023/05/02 04:27:31;;;;;;;9.85;7.88;;;16.80;96.90;;;;;;5032716;28;20033;-74
2023/05/02 04:29:57;;;;;;;12.27;8.07;;;16.70;96.70;;;;;;5032592;28;20103;-74
2023/05/02 04:32:23;;;;;;;10.88;8.63;;;16.70;96.90;;;;;;5032599;28;20029;-74
2023/05/02 04:34:49;;;;;;;10.93;7.38;;;16.80;97.20;;;;;;5032408;28;20044;-74
2023/05/02 04:37:15;;;;;;;11.98;7.85;;;16.70;96.90;;;;;;5032531;28;20104;-74
2023/05/02 04:39:40;;;;;;;11.07;8.35;;;16.80;96.90;;;;;;5032518;28;20061;-74
2023/05/02 04:42:06;;;;;;;9.65;7.78;;;16.80;96.80;;;;;;5032704;28;20037;-75
2023/05/02 04:44:32;;;;;;;11.05;7.70;;;16.80;96.70;;;;;;5032569;28;20042;-74
2023/05/02 04:46:57;;;;;;;9.70;6.30;;;16.80;96.70;;;;;;5032164;28;20026;-74
2023/05/02 04:49:23;;;;;;;9.80;7.68;;;16.80;96.70;;;;;;5032558;28;20041;-74
2023/05/02 04:51:50;;;;;;;10.00;7.90;;;16.80;96.60;;;;;;5032483;28;20026;-74
2023/05/02 04:54:16;;;;;;;11.93;8.40;;;16.90;96.60;;;;;;5032698;28;20111;-73
2023/05/02 04:56:42;;;;;;;12.88;7.88;;;16.90;96.60;;;;;;5032368;28;20073;-74
2023/05/02 04:59:08;;;;;;;10.90;8.63;;;16.90;96.60;;;;;;5032617;28;20461;-74
2023/05/02 05:01:34;;;;;;;10.52;8.02;;;16.90;96.60;;;;;;5014592;28;20040;-74
2023/05/02 05:04:00;;;;;;;10.77;7.97;;;17.00;96.60;;;;;;5032055;28;20029;-75
2023/05/02 05:06:25;;;;;;;11.35;8.32;;;17.00;96.60;;;;;;5032131;28;20387;-74
2023/05/02 05:08:51;;;;;;;11.70;8.57;;;17.00;96.70;;;;;;5032377;28;20041;-75
2023/05/02 05:11:17;;;;;;;11.60;9.73;;;17.00;96.70;;;;;;5032282;28;20538;-74
2023/05/02 05:13:42;;;;;;;14.00;8.57;;;17.10;96.80;;;;;;5032296;28;20033;-75
2023/05/02 05:16:08;;;;;;;10.52;7.70;;;17.10;96.80;;;;;;5032171;28;20040;-74
2023/05/02 05:18:40;;;;;;;9.80;7.97;;;17.10;96.70;;;;;;5032109;28;20033;-74
2023/05/02 05:21:07;;;;;;;9.68;7.88;;;17.20;96.80;;;;;;5032080;28;20025;-76
2023/05/02 05:23:34;;;;;;;11.93;8.55;;;17.20;96.70;;;;;;5032987;28;20029;-74
2023/05/02 05:26:14;;;;;;;11.60;8.65;;;17.30;96.70;;;;;;5033818;28;20030;-76
2023/05/02 05:28:40;;;;;;;10.52;8.35;;;17.30;96.50;;;;;;5014090;28;20402;-74
2023/05/02 05:31:10;;;;;;;14.40;10.30;;;17.30;96.60;;;;;;5034362;28;20078;-75
2023/05/02 05:33:37;;;;;;;10.57;9.23;;;17.30;96.50;;;;;;5035508;28;20041;-75
2023/05/02 05:36:11;;;;;;;12.60;8.32;;;17.30;96.40;;;;;;5035620;28;20034;-73
2023/05/02 05:38:37;;;;;;;9.38;7.93;;;17.40;96.40;;;;;;5035303;28;20041;-75
2023/05/02 05:41:04;;;;;;;11.55;8.55;;;17.50;96.30;;;;;;5035326;28;20033;-75
2023/05/02 05:43:30;;;;;;;12.77;9.38;;;17.60;96.30;;;;;;5035299;28;20552;-73
2023/05/02 05:45:56;;;;;;;11.23;9.00;;;17.60;96.10;;;;;;5034834;28;20033;-73
2023/05/02 05:48:22;;;;;;;15.68;8.38;;;17.60;96.00;;;;;;5035009;28;20372;-74
2023/05/02 05:50:48;;;;;;;11.52;8.63;;;17.70;96.00;;;;;;5016973;28;20042;-76
2023/05/02 05:53:14;;;;;;;19.42;8.07;;;17.90;95.90;;;;;;5034531;28;20034;-75
2023/05/02 05:55:41;;;;;;;10.18;7.57;;;18.10;95.70;;;;;;5035004;28;20045;-75
2023/05/02 05:58:07;;;;;;;8.27;7.35;;;18.30;95.40;;;;;;5034433;28;20033;-76
2023/05/02 06:00:34;;;;;;;9.48;7.00;;;18.60;95.10;;;;;;5034733;28;20034;-75
2023/05/02 06:03:00;;;;;;;9.90;6.28;;;18.90;94.70;;;;;;5034698;28;20052;-75
2023/05/02 06:05:26;;;;;;;7.13;5.88;;;19.10;93.90;;;;;;5017008;28;20029;-77
2023/05/02 06:07:51;;;;;;;10.73;6.22;;;19.40;93.30;;;;;;5034889;28;20200;-80
2023/05/02 06:10:17;;;;;;;8.15;5.97;;;19.70;92.80;;;;;;5034560;28;20045;-78
2023/05/02 06:12:43;;;;;;;10.68;6.47;;;20.00;92.40;;;;;;5035145;28;20491;-77
2023/05/02 06:15:08;;;;;;;11.32;6.68;;;20.10;91.80;;;;;;5035125;28;20030;-71
2023/05/02 06:17:34;;;;;;;13.43;6.50;;;20.10;91.80;;;;;;5034105;28;20044;-72
2023/05/02 06:20:00;;;;;;;11.10;5.20;;;20.30;91.40;;;;;;5033874;28;20399;-72
2023/05/02 06:22:26;;;;;;;7.63;4.97;;;20.40;91.10;;;;;;5033909;28;20045;-77
2023/05/02 06:24:51;;;;;;;5.60;3.53;;;20.50;90.50;;;;;;5034458;28;20033;-74
2023/05/02 06:27:17;;;;;;;6.40;3.60;;;20.50;90.10;;;;;;5034082;28;20030;-76
2023/05/02 06:29:43;;;;;;;5.07;3.38;;;20.60;89.60;;;;;;5034055;28;20053;-71
2023/05/02 06:32:08;;;;;;;7.85;4.20;;;20.70;88.90;;;;;;5033937;28;20049;-73
2023/05/02 06:34:34;;;;;;;8.40;3.88;;;20.90;88.70;;;;;;5030352;28;20052;-72
2023/05/02 06:37:00;;;;;;;10.60;4.78;;;21.20;88.00;;;;;;5034086;28;20069;-72
2023/05/02 06:39:26;;;;;;;9.60;4.57;;;21.40;86.90;;;;;;5033700;28;20603;-72
2023/05/02 06:41:57;;;;;;;8.73;4.53;;;21.50;86.10;;;;;;5034327;28;20030;-72
2023/05/02 06:44:22;;;;;;;7.72;4.75;;;21.80;85.90;;;;;;5034010;28;20579;-72
2023/05/02 06:46:49;;;;;;;7.90;5.03;;;21.90;84.70;;;;;;5016135;28;20116;-71
2023/05/02 06:49:15;;;;;;;6.43;5.13;;;22.10;84.40;;;;;;5033689;28;20036;-71
2023/05/02 06:51:40;;;;;;;11.57;5.50;;;22.10;83.30;;;;;;5033889;28;20421;-71
2023/05/02 06:54:07;;;;;;;9.07;4.88;;;22.00;83.40;;;;;;5033910;28;20550;-74
2023/05/02 06:56:33;;;;;;;8.27;5.45;;;22.00;83.00;;;;;;5028271;28;20447;-77
2023/05/02 06:58:59;;;;;;;9.30;4.40;;;21.90;83.10;;;;;;5021426;28;20103;-77
2023/05/02 07:01:25;;;;;;;8.27;5.03;;;21.90;82.80;;;;;;5015749;28;20495;-76
2023/05/02 07:03:51;;;;;;;8.02;4.90;;;21.90;83.00;;;;;;5033740;28;20171;-76
2023/05/02 07:06:17;;;;;;;7.28;5.00;;;21.80;82.70;;;;;;5032669;28;20406;-76
2023/05/02 07:08:43;;;;;;;10.63;4.80;;;21.50;82.50;;;;;;5028715;28;20041;-76
2023/05/02 07:11:08;;;;;;;12.30;5.85;;;21.50;83.20;;;;;;5033872;28;20036;-74
2023/05/02 07:13:34;;;;;;;6.25;4.80;;;21.60;82.80;;;;;;5033192;28;20037;-74
2023/05/02 07:16:00;;;;;;;11.65;5.18;;;21.40;82.70;;;;;;5033318;28;20030;-74
2023/05/02 07:18:26;;;;;;;6.90;5.28;;;21.40;82.70;;;;;;5010295;28;20041;-75
2023/05/02 07:20:51;;;;;;;9.63;5.35;;;21.20;82.50;;;;;;5033341;28;20037;-74
2023/05/02 07:23:17;;;;;;;7.43;4.78;;;21.20;82.80;;;;;;5033172;28;20030;-75
2023/05/02 07:25:43;;;;;;;8.23;4.88;;;21.30;82.80;;;;;;5033032;28;20178;-75
2023/05/02 07:28:08;;;;;;;10.45;4.72;;;21.20;82.80;;;;;;5027769;28;20025;-76
2023/05/02 07:30:34;;;;;;;9.23;4.57;;;21.20;83.00;;;;;;5015192;28;20053;-75
2023/05/02 07:33:00;;;;;;;14.20;5.15;;;21.20;82.30;;;;;;5033265;28;20065;-75
2023/05/02 07:35:25;;;;;;;11.65;4.57;;;21.10;82.50;;;;;;5033073;28;20037;-76
2023/05/02 07:37:51;;;;;;;10.85;4.05;;;21.00;82.50;;;;;;5027580;28;20033;-76
2023/05/02 07:40:17;;;;;;;8.07;4.60;;;20.90;82.30;;;;;;5032979;28;20100;-75
2023/05/02 07:42:43;;;;;;;6.93;4.40;;;21.00;82.60;;;;;;5033062;28;20034;-79
2023/05/02 07:45:09;;;;;;;26.00;7.30;;;20.80;82.60;;;;;;5015262;28;20471;-75
2023/05/02 07:47:35;;;;;;;9.40;4.13;;;20.90;82.80;;;;;;5027291;28;20083;-75
2023/05/02 07:50:03;;;;;;;5.50;3.40;;;21.00;82.20;;;;;;5014803;28;20053;-79
2023/05/02 07:52:29;;;;;;;7.88;2.85;;;21.00;81.80;;;;;;5032647;28;20034;-76
2023/05/02 07:54:55;;;;;;;4.70;2.28;;;21.00;81.20;;;;;;5032599;28;20041;-73
2023/05/02 07:57:21;;;;;;;9.38;2.60;;;21.00;80.80;;;;;;5028063;28;20107;-72
2023/05/02 07:59:46;;;;;;;19.38;3.53;;;20.90;80.10;;;;;;5030580;28;20037;-73
2023/05/02 08:02:12;;;;;;;12.55;3.55;;;21.00;80.20;;;;;;5031931;28;20036;-74
2023/05/02 08:04:39;;;;;;;8.52;2.97;;;21.10;80.10;;;;;;5030754;28;20160;-75
2023/05/02 08:07:04;;;;;;;7.60;2.92;;;21.20;80.00;;;;;;5028836;28;20117;-73
2023/05/02 08:09:30;;;;;;;11.05;3.50;;;21.30;79.70;;;;;;5029967;28;20451;-72
2023/05/02 08:11:56;;;;;;;12.05;3.38;;;21.40;79.40;;;;;;5032211;28;20110;-71
2023/05/02 08:14:22;;;;;;;9.07;3.00;;;21.40;78.90;;;;;;5032173;28;20495;-71
2023/05/02 08:16:48;;;;;;;11.43;3.65;;;21.40;78.50;;;;;;5029512;28;20047;-71
2023/05/02 08:19:14;;;;;;;9.13;3.30;;;21.40;78.30;;;;;;5028803;28;20505;-71
2023/05/02 08:21:41;;;;;;;8.57;2.72;;;21.40;77.90;;;;;;5031847;28;20028;-72
2023/05/02 08:24:06;;;;;;;4.32;2.20;;;21.50;77.60;;;;;;5014454;28;20049;-72
2023/05/02 08:26:32;;;;;;;6.50;1.90;;;21.60;77.10;;;;;;5031013;28;20099;-73
2023/05/02 08:28:58;;;;;;;11.68;2.65;;;21.60;76.60;;;;;;5028477;28;20051;-71
2023/05/02 08:31:24;;;;;;;9.85;1.90;;;21.70;76.60;;;;;;5032099;28;20037;-72
2023/05/02 08:33:50;;;;;;;5.07;2.10;;;21.70;76.20;;;;;;5031502;28;20041;-70
2023/05/02 08:36:17;;;;;;;4.55;2.03;;;21.60;76.10;;;;;;5031477;28;20034;-73
2023/05/02 08:38:44;;;;;;;5.80;1.80;;;21.60;75.60;;;;;;5027338;28;20120;-73
2023/05/02 08:41:15;;;;;;;7.13;1.95;;;21.70;75.70;;;;;;5031816;28;20037;-73
2023/05/02 08:43:41;;;;;;;9.98;2.60;;;21.90;75.50;;;;;;5031906;28;20061;-72
2023/05/02 08:46:09;;;;;;;6.35;1.90;;;22.10;75.10;;;;;;5031733;28;20064;-71
2023/05/02 08:48:40;;;;;;;8.55;2.15;;;22.20;74.20;;;;;;5025872;28;20340;-71
2023/05/02 08:51:13;;;;;;;14.32;2.28;;;22.30;74.30;;;;;;5014573;28;20033;-70
2023/05/02 08:53:40;;;;;;;4.25;1.70;;;22.40;74.80;;;;;;5032073;28;20443;-70
2023/05/02 08:56:07;;;;;;;3.72;1.80;;;22.40;74.00;;;;;;5021247;28;20034;-71
2023/05/02 08:58:37;;;;;;;7.22;1.60;;;22.30;73.50;;;;;;5026904;28;20048;-72
2023/05/02 09:01:13;;;;;;;7.40;1.88;;;22.20;73.20;;;;;;5031363;28;20040;-72
2023/05/02 09:03:39;;;;;;;5.13;1.60;;;22.10;73.10;;;;;;5031549;28;20052;-72
2023/05/02 09:06:09;;;;;;;4.80;1.50;;;22.10;73.40;;;;;;5034250;28;20320;-73
2023/05/02 09:08:36;;;;;;;4.90;1.33;;;22.20;73.50;;;;;;5030686;28;20037;-69
2023/05/02 09:11:03;;;;;;;4.78;1.65;;;22.20;73.50;;;;;;5036008;28;20552;-70
2023/05/02 09:13:36;;;;;;;5.82;1.70;;;22.20;73.10;;;;;;5035627;28;20112;-70
2023/05/02 09:16:13;;;;;;;9.43;2.20;;;22.20;73.20;;;;;;5035628;28;20164;-70
2023/05/02 09:18:41;;;;;;;3.63;1.70;;;22.30;72.60;;;;;;5029901;28;20113;-70
2023/05/02 09:21:09;;;;;;;11.23;2.47;;;22.30;72.70;;;;;;5035747;28;20048;-70
2023/05/02 09:23:43;;;;;;;10.05;2.47;;;22.60;72.60;;;;;;5035430;28;20037;-70
2023/05/02 09:26:22;;;;;;;8.27;2.22;;;22.70;72.70;;;;;;5017909;28;20040;-70
2023/05/02 09:28:50;;;;;;;6.43;2.15;;;22.80;73.20;;;;;;5046534;28;20116;-68
2023/05/02 09:31:24;;;;;;;4.70;2.15;;;23.00;71.60;;;;;;5035857;28;20021;-70
2023/05/02 09:33:51;;;;;;;5.97;2.38;;;23.00;71.60;;;;;;5034790;28;20042;-70
2023/05/02 09:36:19;;;;;;;6.07;2.42;;;23.10;70.90;;;;;;5035198;28;20387;-70
2023/05/02 09:38:47;;;;;;;4.88;2.33;;;23.10;71.10;;;;;;5031665;28;20534;-70
2023/05/02 09:41:13;;;;;;;7.32;2.55;;;23.00;70.70;;;;;;5035514;28;20120;-69
2023/05/02 09:43:39;;;;;;;5.78;2.20;;;22.90;70.60;;;;;;5017241;28;20579;-70
2023/05/02 09:46:10;;;;;;;6.93;2.50;;;22.90;70.50;;;;;;5035211;28;20116;-70
2023/05/02 09:48:56;;;;;;;3.65;2.33;;;22.90;70.40;;;;;;5030038;28;20044;-70
2023/05/02 09:51:24;;;;;;;4.90;2.10;;;22.80;70.50;;;;;;5017282;28;20144;-70
2023/05/02 09:53:50;;;;;;;4.13;1.77;;;22.90;70.10;;;;;;5016886;28;20080;-70
2023/05/02 09:56:17;;;;;;;5.68;2.45;;;23.10;69.90;;;;;;5034130;28;20518;-71
2023/05/02 09:58:44;;;;;;;8.70;3.08;;;23.30;69.80;;;;;;5030256;28;20029;-70
2023/05/02 10:01:17;;;;;;;6.30;2.25;;;23.30;69.50;;;;;;5034427;28;20530;-70
2023/05/02 10:03:46;;;;;;;5.75;2.53;;;23.50;69.50;;;;;;5034096;28;20117;-70
2023/05/02 10:06:12;;;;;;;4.28;2.00;;;23.60;69.20;;;;;;5034121;28;20495;-69
2023/05/02 10:08:39;;;;;;;5.35;1.98;;;23.50;68.80;;;;;;5029654;28;20083;-70
2023/05/02 10:11:07;;;;;;;8.30;2.10;;;23.50;68.50;;;;;;5034740;28;20097;-71
2023/05/02 10:13:38;;;;;;;5.50;2.10;;;23.40;68.10;;;;;;5034711;28;20038;-69
2023/05/02 10:16:05;;;;;;;5.65;2.05;;;23.30;67.80;;;;;;5034258;28;20383;-70
2023/05/02 10:18:39;;;;;;;3.80;1.95;;;23.30;67.70;;;;;;5028756;28;20430;-69
2023/05/02 10:21:09;;;;;;;4.05;1.80;;;23.40;67.80;;;;;;5034261;28;20030;-70
2023/05/02 10:23:37;;;;;;;6.05;2.28;;;23.50;67.50;;;;;;5017289;28;20041;-72
2023/05/02 10:26:03;;;;;;;5.30;1.85;;;23.50;66.70;;;;;;5034563;28;20025;-70
2023/05/02 10:28:29;;;;;;;3.42;1.80;;;23.40;66.30;;;;;;5029404;28;20049;-70
2023/05/02 10:30:56;;;;;;;3.22;1.40;;;23.50;66.30;;;;;;5034491;28;20439;-70
2023/05/02 10:33:22;;;;;;;4.15;1.70;;;23.50;65.90;;;;;;5033741;28;20034;-70
2023/05/02 10:35:48;;;;;;;4.50;1.65;;;23.50;65.30;;;;;;5034113;28;20036;-70
2023/05/02 10:38:18;;;;;;;4.35;1.80;;;23.70;65.40;;;;;;5028880;28;20040;-70
2023/05/02 10:40:55;;;;;;;5.15;2.60;;;23.90;65.10;;;;;;5034039;28;20146;-71
2023/05/02 10:43:23;;;;;;;4.97;2.30;;;24.00;64.70;;;;;;5034601;28;20038;-71
2023/05/02 10:45:50;;;;;;;2.88;1.50;;;24.10;64.20;;;;;;5034184;28;20042;-73
2023/05/02 10:48:21;;;;;;;7.38;1.90;;;24.10;63.90;;;;;;5028419;28;20091;-70
2023/05/02 10:50:50;;;;;;;4.70;1.27;;;24.00;63.50;;;;;;5016365;28;20030;-71
2023/05/02 10:53:49;;;;;;;3.38;1.40;;;24.10;62.70;;;;;;5034726;28;20069;-70
2023/05/02 10:56:20;;;;;;;3.80;1.50;;;24.10;62.50;;;;;;5030160;28;20075;-71
2023/05/02 10:58:48;;;;;;;3.83;1.42;;;24.10;62.60;;;;;;5029295;28;20574;-71
2023/05/02 11:01:35;;;;;;;2.20;1.30;;;24.10;62.10;;;;;;5015140;28;20044;-71
2023/05/02 11:04:01;;;;;;;2.63;1.33;;;24.10;61.90;;;;;;5034091;28;20099;-71
2023/05/02 11:06:33;;;;;;;3.72;1.30;;;23.90;62.70;;;;;;5032785;28;20033;-71
2023/05/02 11:09:17;;;;;;;2.78;1.60;;;23.90;62.90;;;;;;5011951;28;20503;-71
2023/05/02 11:11:46;;;;;;;1.98;1.50;;;23.90;62.80;;;;;;5033138;28;20034;-71
2023/05/02 11:14:37;;;;;;;5.22;1.42;;;24.00;63.50;;;;;;5033301;28;20453;-71
2023/05/02 11:17:03;;;;;;;3.45;1.58;;;24.00;62.60;;;;;;5030322;28;20037;-71
2023/05/02 11:19:50;;;;;;;2.55;1.23;;;24.10;63.30;;;;;;5030211;28;20044;-71
2023/05/02 11:22:19;;;;;;;6.10;1.40;;;23.90;62.90;;;;;;5033261;28;20406;-71
2023/05/02 11:24:47;;;;;;;2.38;1.23;;;23.80;63.20;;;;;;5015670;28;20037;-71
2023/05/02 11:27:28;;;;;;;4.88;1.75;;;23.70;63.40;;;;;;5030602;28;20377;-71
2023/05/02 11:29:54;;;;;;;2.47;1.35;;;23.60;63.90;;;;;;5032405;28;20512;-69
2023/05/02 11:32:21;;;;;;;3.00;1.50;;;23.60;64.20;;;;;;5032845;28;20164;-70
2023/05/02 11:34:51;;;;;;;7.00;1.90;;;23.60;64.20;;;;;;5032884;28;20171;-70
2023/05/02 11:37:18;;;;;;;5.53;2.08;;;23.50;64.40;;;;;;5011921;28;20114;-71
2023/05/02 11:39:45;;;;;;;5.28;1.63;;;23.50;63.80;;;;;;5031116;28;20506;-71
2023/05/02 11:42:31;;;;;;;3.55;1.70;;;23.50;64.00;;;;;;5033146;28;20045;-69
2023/05/02 11:44:58;;;;;;;3.90;2.08;;;23.40;63.70;;;;;;5032851;28;20044;-73
2023/05/02 11:47:26;;;;;;;4.40;1.73;;;23.40;64.10;;;;;;5028410;28;20040;-70
2023/05/02 11:49:56;;;;;;;5.57;1.80;;;23.40;64.50;;;;;;5032294;28;20402;-72
2023/05/02 11:52:23;;;;;;;6.13;2.13;;;23.30;64.40;;;;;;5033021;28;20049;-72
2023/05/02 21:28:33;;;;;;;9.32;6.70;;;18.50;92.40;;;;;;5013020;28;20836;-72
2023/05/02 21:31:00;;;;;;;9.38;6.75;;;18.40;92.40;;;;;;4991743;28;20447;-71
2023/05/02 21:33:26;;;;;;;9.77;7.22;;;18.40;92.50;;;;;;4995271;28;20062;-69
2023/05/02 21:35:56;;;;;;;10.73;7.20;;;18.30;92.70;;;;;;4994717;28;20512;-70
2023/05/02 21:38:22;;;;;;;11.07;6.95;;;18.40;92.80;;;;;;4992001;28;20161;-70
2023/05/02 21:40:47;;;;;;;10.48;7.00;;;18.30;92.80;;;;;;5014345;28;20116;-70
2023/05/02 21:43:13;;;;;;;12.57;7.55;;;18.30;93.00;;;;;;5014588;28;20050;-72
2023/05/02 21:45:48;;;;;;;9.02;6.68;;;18.30;93.10;;;;;;5014632;28;20049;-71
2023/05/02 21:48:15;;;;;;;8.02;6.65;;;18.20;93.20;;;;;;5002649;28;20053;-69
2023/05/02 21:50:42;;;;;;;13.30;7.05;;;18.20;93.20;;;;;;4994383;28;20039;-72
2023/05/02 21:53:08;;;;;;;13.75;7.32;;;18.20;93.20;;;;;;4990882;28;20432;-71
2023/05/02 21:55:38;;;;;;;13.00;7.78;;;18.20;93.30;;;;;;5013464;28;20045;-70
2023/05/02 21:58:05;;;;;;;10.20;7.88;;;18.20;93.40;;;;;;4997671;28;20488;-72
2023/05/02 22:00:33;;;;;;;10.77;7.88;;;18.20;93.50;;;;;;4998661;28;20110;-70
2023/05/02 22:03:06;;;;;;;9.93;7.32;;;18.20;93.60;;;;;;4996557;28;20377;-70
2023/05/02 22:05:34;;;;;;;9.70;7.15;;;18.20;93.60;;;;;;5003289;28;20034;-70
2023/05/02 22:08:00;;;;;;;12.65;8.00;;;18.20;93.70;;;;;;4990897;28;20085;-70
2023/05/02 22:10:28;;;;;;;10.85;7.05;;;18.10;93.70;;;;;;4994140;28;20051;-74
2023/05/02 22:12:55;;;;;;;9.88;8.27;;;18.10;93.80;;;;;;4990235;28;20031;-77
2023/05/02 22:15:21;;;;;;;10.85;8.13;;;18.10;93.90;;;;;;4993955;28;20047;-76
2023/05/02 22:17:47;;;;;;;12.57;9.10;;;18.00;94.00;;;;;;5009949;28;20037;-75
2023/05/02 22:20:13;;;;;;;16.25;8.52;;;18.00;94.10;;;;;;5012375;28;20045;-74
2023/05/02 22:22:39;;;;;;;10.20;8.88;;;18.00;94.10;;;;;;5013512;28;20349;-76
2023/05/02 22:25:06;;;;;;;10.32;8.52;;;18.00;94.20;;;;;;5013170;28;20037;-76